createdAt,value
2018-03-20T00:00:52.290Z,71.10
2018-03-20T00:05:55.439Z,69.23
2018-03-20T00:10:58.004Z,80.70
2018-03-20T00:16:00.588Z,69.50
2018-03-20T00:21:03.937Z,73.73
2018-03-20T00:26:06.517Z,78.87
2018-03-20T00:36:26.485Z,89.97
2018-03-20T00:41:29.071Z,82.33
2018-03-20T00:46:32.115Z,74.40
2018-03-20T00:51:34.697Z,84.03
2018-03-20T00:56:39.789Z,82.63
2018-03-20T01:01:42.403Z,75.07
2018-03-20T01:06:45.586Z,81.80
2018-03-20T01:11:48.178Z,92.10
2018-03-20T01:16:50.761Z,82.77
2018-03-20T01:21:53.350Z,82.17
2018-03-20T01:26:57.272Z,84.37
2018-03-20T01:31:59.848Z,80.37
2018-03-20T01:37:02.890Z,80.43
2018-03-20T01:42:06.241Z,91.67
2018-03-20T01:47:08.838Z,79.50
2018-03-20T01:52:11.920Z,88.20
2018-03-20T01:57:15.266Z,87.33
2018-03-20T02:02:17.858Z,82.27
2018-03-20T02:07:20.472Z,82.13
2018-03-20T02:12:23.696Z,76.57
2018-03-20T02:17:26.953Z,73.30
2018-03-20T02:22:29.997Z,70.07
2018-03-20T02:27:32.719Z,68.53
2018-03-20T02:32:35.318Z,65.30
2018-03-20T02:37:37.980Z,69.87
2018-03-20T02:42:40.557Z,66.13
2018-03-20T02:47:43.163Z,70.87
2018-03-20T02:52:45.759Z,68.40
2018-03-20T02:57:48.881Z,68.77
2018-03-20T03:02:51.474Z,58.80
2018-03-20T03:07:54.631Z,60.70
2018-03-20T03:12:58.401Z,59.50
2018-03-20T03:18:02.147Z,61.63
2018-03-20T03:23:04.753Z,67.90
2018-03-20T03:28:07.325Z,62.07
2018-03-20T03:33:11.051Z,65.30
2018-03-20T03:38:14.401Z,69.97
2018-03-20T03:43:16.978Z,63.87
2018-03-20T03:48:19.581Z,76.60
2018-03-20T03:53:22.173Z,66.50
2018-03-20T03:58:24.782Z,60.87
2018-03-20T04:03:28.258Z,64.10
2018-03-20T04:08:31.399Z,57.30
2018-03-20T04:13:37.861Z,63.70
2018-03-20T04:18:40.448Z,65.03
2018-03-20T04:23:43.674Z,64.30
2018-03-20T04:28:49.805Z,66.63
2018-03-20T04:33:52.385Z,60.30
2018-03-20T04:38:56.165Z,57.53
2018-03-20T04:43:59.629Z,57.23
2018-03-20T04:49:05.571Z,55.80
2018-03-20T04:54:08.157Z,57.40
2018-03-20T04:59:11.235Z,56.30
2018-03-20T05:04:14.703Z,50.20
2018-03-20T05:09:17.383Z,48.93
2018-03-20T05:14:20.067Z,53.33
2018-03-20T05:25:03.583Z,39.70
2018-03-20T05:30:06.285Z,46.67
2018-03-20T05:35:08.973Z,38.80
2018-03-20T05:40:11.672Z,44.30
2018-03-20T05:45:14.373Z,42.17
2018-03-20T05:55:52.745Z,34.50
2018-03-20T06:00:55.459Z,41.60
2018-03-20T06:05:58.144Z,46.40
2018-03-20T06:11:00.836Z,40.10
2018-03-20T06:16:03.512Z,42.33
2018-03-20T06:21:06.220Z,41.50
2018-03-20T06:26:09.677Z,36.83
2018-03-20T06:31:12.937Z,38.67
2018-03-20T06:36:16.105Z,41.50
2018-03-20T06:41:19.372Z,33.93
2018-03-20T06:46:21.958Z,36.53
2018-03-20T06:51:25.127Z,35.97
2018-03-20T06:56:27.701Z,39.83
2018-03-20T07:01:31.037Z,37.10
2018-03-20T07:06:33.630Z,37.07
2018-03-20T07:11:36.220Z,37.43
2018-03-20T07:16:39.553Z,35.33
2018-03-20T07:21:42.941Z,34.77
2018-03-20T07:26:45.515Z,38.97
2018-03-20T07:31:54.801Z,40.57
2018-03-20T07:36:58.596Z,37.60
2018-03-20T07:42:01.886Z,36.73
2018-03-20T07:47:04.476Z,39.87
2018-03-20T07:52:07.054Z,35.23
2018-03-20T07:57:10.404Z,33.67
2018-03-20T08:02:15.604Z,36.97
2018-03-20T08:07:18.522Z,42.93
2018-03-20T08:12:21.135Z,38.77
2018-03-20T08:17:25.046Z,33.70
2018-03-20T08:22:27.645Z,39.57
2018-03-20T08:27:30.217Z,35.20
2018-03-20T08:32:35.432Z,38.30
2018-03-20T08:37:39.341Z,32.03
2018-03-20T08:42:41.913Z,30.40
2018-03-20T08:47:44.497Z,30.40
2018-03-20T08:52:47.098Z,31.90
2018-03-20T08:57:52.791Z,29.47
2018-03-20T09:02:56.205Z,32.43
2018-03-20T09:07:59.546Z,29.87
2018-03-20T09:13:02.159Z,28.40
2018-03-20T09:18:08.598Z,29.83
2018-03-20T09:23:11.478Z,29.27
2018-03-20T09:28:14.531Z,33.30
2018-03-20T09:33:17.100Z,33.27
2018-03-20T09:38:20.233Z,36.60
2018-03-20T09:43:23.137Z,50.63
2018-03-20T09:48:25.714Z,29.10
2018-03-20T09:53:29.454Z,28.13
2018-03-20T09:58:32.304Z,30.53
2018-03-20T10:03:34.904Z,36.13
2018-03-20T10:08:38.560Z,25.67
2018-03-20T10:13:41.992Z,26.30
2018-03-20T10:18:44.576Z,30.93
2018-03-20T10:23:47.164Z,27.47
2018-03-20T10:28:50.214Z,39.63
2018-03-20T10:33:52.784Z,26.30
2018-03-20T10:38:56.017Z,25.43
2018-03-20T10:43:58.596Z,27.50
2018-03-20T10:49:01.186Z,29.77
2018-03-20T10:54:03.801Z,27.50
2018-03-20T10:59:06.419Z,33.63
2018-03-20T11:04:09.564Z,29.80
2018-03-20T11:09:12.150Z,29.50
2018-03-20T11:14:14.988Z,32.83
2018-03-20T11:19:17.836Z,27.97
2018-03-20T11:24:20.477Z,31.93
2018-03-20T11:29:23.046Z,31.43
2018-03-20T11:34:25.918Z,29.00
2018-03-20T11:39:29.048Z,28.63
2018-03-20T11:44:31.643Z,29.47
2018-03-20T11:49:34.248Z,30.80
2018-03-20T11:54:37.692Z,33.73
2018-03-20T11:59:41.049Z,29.30
2018-03-20T12:04:43.691Z,29.60
2018-03-20T12:09:51.835Z,29.23
2018-03-20T12:14:55.173Z,38.23
2018-03-20T12:19:57.758Z,36.53
2018-03-20T12:25:01.423Z,29.57
2018-03-20T12:30:04.174Z,31.60
2018-03-20T12:35:07.400Z,33.67
2018-03-20T12:40:11.039Z,32.10
2018-03-20T12:45:14.287Z,34.07
2018-03-20T12:50:17.266Z,31.70
2018-03-20T12:55:20.527Z,31.97
2018-03-20T13:00:24.334Z,32.27
2018-03-20T13:05:26.912Z,35.60
2018-03-20T13:10:30.325Z,31.50
2018-03-20T13:15:33.665Z,28.73
2018-03-20T13:20:36.242Z,30.50
2018-03-20T13:25:40.161Z,34.63
2018-03-20T13:30:43.092Z,33.67
2018-03-20T13:35:46.448Z,29.70
2018-03-20T13:40:49.635Z,29.80
2018-03-20T13:45:52.698Z,32.00
2018-03-20T13:50:58.678Z,31.43
2018-03-20T13:55:58.764Z,35.23
2018-03-20T14:01:01.408Z,30.70
2018-03-20T14:06:07.819Z,33.47
2018-03-20T14:11:10.418Z,30.23
2018-03-20T14:16:13.011Z,32.93
2018-03-20T14:21:15.621Z,31.73
2018-03-20T14:26:18.487Z,28.80
2018-03-20T14:31:21.077Z,31.43
2018-03-20T14:36:26.387Z,32.67
2018-03-20T14:41:29.761Z,33.63
2018-03-20T14:46:34.979Z,29.20
2018-03-20T14:51:38.329Z,33.43
2018-03-20T14:56:41.770Z,33.70
2018-03-20T15:01:44.380Z,32.53
2018-03-20T15:06:46.957Z,32.13
2018-03-20T15:11:50.144Z,30.83
2018-03-20T15:16:55.487Z,31.53
2018-03-20T15:21:58.718Z,31.63
2018-03-20T15:27:02.070Z,27.27
2018-03-20T15:32:05.310Z,32.53
2018-03-20T15:37:07.946Z,27.23
2018-03-20T15:42:10.576Z,31.87
2018-03-20T15:47:13.161Z,33.93
2018-03-20T15:52:15.845Z,26.27
2018-03-20T15:57:18.449Z,32.23
2018-03-20T16:02:21.782Z,28.30
2018-03-20T16:07:24.940Z,29.37
2018-03-20T16:12:28.289Z,31.87
2018-03-20T16:17:31.941Z,29.37
2018-03-20T16:22:34.805Z,32.37
2018-03-20T16:27:38.188Z,29.60
2018-03-20T16:32:41.094Z,29.80
2018-03-20T16:37:43.672Z,33.90
2018-03-20T16:42:46.277Z,33.93
2018-03-20T16:47:48.864Z,38.60
2018-03-20T16:52:53.028Z,31.70
2018-03-20T16:57:55.614Z,36.87
2018-03-20T17:02:58.823Z,37.40
2018-03-20T17:08:01.391Z,39.70
2018-03-20T17:13:04.765Z,38.27
2018-03-20T17:18:07.341Z,33.37
2018-03-20T17:23:09.928Z,36.13
2018-03-20T17:28:12.534Z,30.67
2018-03-20T17:33:15.117Z,32.83
2018-03-20T17:38:18.484Z,26.60
2018-03-20T17:43:21.705Z,30.67
2018-03-20T17:48:24.317Z,27.53
2018-03-20T17:53:27.350Z,22.33
2018-03-20T17:58:29.933Z,19.83
2018-03-20T18:03:32.760Z,18.70
2018-03-20T18:08:35.337Z,19.53
2018-03-20T18:13:39.126Z,15.60
2018-03-20T18:18:42.931Z,20.27
2018-03-20T18:23:46.290Z,25.27
2018-03-20T18:28:49.502Z,21.63
2018-03-20T18:33:57.875Z,21.20
2018-03-20T18:39:03.783Z,23.00
2018-03-20T18:44:10.486Z,22.20
2018-03-20T18:49:13.089Z,23.70
2018-03-20T18:54:15.681Z,28.47
2018-03-20T18:59:18.294Z,22.87
2018-03-20T19:04:21.338Z,25.60
2018-03-20T19:09:24.030Z,24.07
2018-03-20T19:14:29.236Z,25.70
2018-03-20T19:19:31.811Z,22.57
2018-03-20T19:24:35.079Z,25.97
2018-03-20T19:29:37.681Z,26.10
2018-03-20T19:34:40.737Z,27.30
2018-03-20T19:39:43.340Z,29.17
2018-03-20T19:44:45.934Z,25.77
2018-03-20T19:49:49.349Z,28.43
2018-03-20T19:54:56.030Z,27.93
2018-03-20T19:59:58.668Z,31.10
2018-03-20T20:05:01.527Z,33.80
2018-03-20T20:10:04.128Z,31.73
2018-03-20T20:15:06.746Z,32.27
2018-03-20T20:20:10.136Z,33.40
2018-03-20T20:25:12.746Z,32.13
2018-03-20T20:30:15.786Z,34.03
2018-03-20T20:35:20.975Z,28.90
2018-03-20T20:40:31.039Z,32.77
2018-03-20T20:45:33.929Z,34.83
2018-03-20T20:50:39.094Z,35.20
2018-03-20T20:55:42.272Z,39.97
2018-03-20T21:00:47.787Z,33.50
2018-03-20T21:05:51.147Z,35.33
2018-03-20T21:10:53.730Z,35.73
2018-03-20T21:15:56.789Z,35.27
2018-03-20T21:20:59.931Z,38.07
2018-03-20T21:26:04.488Z,42.83
2018-03-20T21:31:07.919Z,44.33
2018-03-20T21:36:10.953Z,42.00
2018-03-20T21:41:13.754Z,49.03
2018-03-20T21:46:17.006Z,43.23
2018-03-20T21:51:20.052Z,45.43
2018-03-20T21:56:23.743Z,41.30
2018-03-20T22:01:26.862Z,46.00
2018-03-20T22:06:29.446Z,42.70
2018-03-20T22:11:32.714Z,43.53
2018-03-20T22:16:37.234Z,44.20
2018-03-20T22:21:39.876Z,47.77
2018-03-20T22:26:42.458Z,44.83
2018-03-20T22:31:45.063Z,48.70
2018-03-20T22:36:48.334Z,44.57
2018-03-20T22:41:50.917Z,47.00
2018-03-20T22:46:54.134Z,47.73
2018-03-20T22:51:56.707Z,47.00
2018-03-20T22:57:00.852Z,52.73
2018-03-20T23:02:03.555Z,50.87
2018-03-20T23:07:06.450Z,46.13
2018-03-20T23:12:09.048Z,51.10
2018-03-20T23:17:11.638Z,52.77
2018-03-20T23:22:16.833Z,51.23
2018-03-20T23:27:19.884Z,52.77
2018-03-20T23:32:22.584Z,52.60
2018-03-20T23:37:25.259Z,55.97
2018-03-20T23:42:27.977Z,52.50
2018-03-20T23:47:30.776Z,54.27
2018-03-20T23:52:33.465Z,57.60
2018-03-20T23:57:36.143Z,52.77
